Главная страница
METAR-TAF:

METAR-TAF

Аэропорты :

Beaver Falls, Пенсильвания, США

широта: 40-46N, долгота: 080-24W, высота над уровнем моря: 382 м

Текущие метеонаблюдения

Эта сводка был подготовлена 9 минут назад, в 10:15 UTC
Штиль
Температура 15°C
Влажность 82%
Давление 1016 hPa
Видимость: 16.1 км
ясное небо

METAR: KBVI 241015Z AUTO 00000KT 10SM CLR 15/12 A3001 RMK AO2 T01520123

Время: 06:24 (10:24 UTC)

Прогноз

Эта сводка был подготовлена 4 часа и 48 минут назад, в 05:36 UTC
Прогноз действительный с 24-го 06 UTC до 25-го 06 UTC
Ветер 3 Узел от западный-юго-западный
Видимость: 10 км
Рассеянная облачность на высоте 25000 фута
С 24-го 1700 UTC
Ветер 6 Узел от западный-юго-западный
Видимость: 10 км
Рассеянная облачность на высоте 25000 фута
С 24-го 2300 UTC
Ветер Узел от северный
Видимость: 10 км
Отдельные облака на высоте 25000 фута

TAF: KBVI 240536Z 2406/2506 25003KT P6SM BKN250 FM241700 24006KT P6SM BKN250 FM242300 00000KT P6SM SCT250

Метеонаблюдения и прогнозы для более 4000 аэропортов (сводки METAR и TAF).

Имеющиеся станции представлены на карте желтыми и красными точками.

Чтобы увидеть название станции, наведите на нее мышь.

Затем щелкните, чтобы увидеть метеонаблюдения и метеопрогнозы.

Управление картой: чтобы увеличить масштаб, щелкните зеленые кнопки с черным крестиком; чтобы уменьшить масштаб, щелкните зеленую кнопку с тире; для просмотра соседних карт щелкайте зеленые стрелки.


METAR-TAF: